Albert Oldendorff — CQLO — position and weather

sailwx.info

Track history (hours):
 
Tides and Currents Weather Stations Pressure Air Temp Water Temp Dewpoint Dewpoint Depression Visibility Wind Speed Wind Dir Waves Ship Positions

Albert Oldendorff

Last reported at 2014-Sep-09 03:14 UTC. Time now 2014-Sep-30 16:04 UTC.
Position N 48°29' W 126°11'.
Warning: this ship's position is 21 days out of date.

Length 171 m; draft 10.5 m.

Type: Cargo ship. MMSI: 255805260.

Date/timePositionNaut miles runAvg speedWind from/ knotsBaromVisibWave heightAir tempDewpointWater temp
2014-Sep-09 03:14N 48°29' W 126°11'812.3
2014-Sep-09 02:33N 48°29' W 125°58'1312.9
2014-Sep-09 01:33N 48°30' W 125°39'1413.0
2014-Sep-09 00:31N 48°30' W 125°19'1213.1
2014-Sep-08 23:33N 48°31' W 124°60'1312.8
2014-Sep-08 22:33N 48°29' W 124°40'1312.6
2014-Sep-08 21:33N 48°25' W 124°23'1211.9
2014-Sep-08 20:33N 48°20' W 124°06'1212.1
2014-Sep-08 19:33N 48°17' W 123°49'1212.3
2014-Sep-08 18:33N 48°16' W 123°30'10 9.7
2014-Sep-08 17:33N 48°23' W 123°20'10 9.8
2014-Sep-08 16:34N 48°32' W 123°13'1313.1
2014-Sep-08 15:33N 48°44' W 123°08'10 9.9
2014-Sep-08 14:33N 48°54' W 123°09'1414.0
2014-Sep-08 13:33N 49°04' W 123°24'1313.5
2014-Sep-08 12:34N 49°18' W 123°19'9 9.0
2014-Sep-08 11:34N 49°18' W 123°05'1 1.3
2014-Sep-08 10:34N 49°18' W 123°03'0 0.0
2014-Sep-08 09:31N 49°18' W 123°03'0 0.0
2014-Sep-08 08:31N 49°18' W 123°03'0 0.0
2014-Sep-08 07:31N 49°18' W 123°03'0 0.0
2014-Sep-08 06:31N 49°18' W 123°03'0 0.0
2014-Sep-08 05:31N 49°18' W 123°03'0 0.0
2014-Sep-08 04:31N 49°18' W 123°03'0 0.0
2014-Sep-08 03:31N 49°18' W 123°03'0 0.0
2014-Sep-08 02:31N 49°18' W 123°03'0 0.0
2014-Sep-08 01:31N 49°18' W 123°03'0 0.0
2014-Sep-08 00:31N 49°18' W 123°03'0 0.0
2014-Sep-07 23:31N 49°18' W 123°03'0 0.0
2014-Sep-07 22:31N 49°18' W 123°03'0 0.0
2014-Sep-07 21:31N 49°18' W 123°03'0 0.0
2014-Sep-07 20:31N 49°18' W 123°03'0 0.0
2014-Sep-07 19:31N 49°18' W 123°03'0 0.0
2014-Sep-07 18:31N 49°18' W 123°03'0 0.0
2014-Sep-07 17:31N 49°18' W 123°03'0 0.0
2014-Sep-07 16:31N 49°18' W 123°03'0 0.0
2014-Sep-07 15:31N 49°18' W 123°03'0 0.0
2014-Sep-07 14:31N 49°18' W 123°03'0 0.0
2014-Sep-07 13:31N 49°18' W 123°03'0 0.0
2014-Sep-07 12:31N 49°18' W 123°03'0 0.0
2014-Sep-07 11:31N 49°18' W 123°03'0 0.0
2014-Sep-07 10:31N 49°18' W 123°03'0 0.0
2014-Sep-07 09:31N 49°18' W 123°03'0 0.0
2014-Sep-07 08:31N 49°18' W 123°03'0 0.0
2014-Sep-07 07:31N 49°18' W 123°03'0 0.0
2014-Sep-07 06:31N 49°18' W 123°03'0 0.0
2014-Sep-07 05:31N 49°18' W 123°03'0 0.0
2014-Sep-07 04:28N 49°18' W 123°03'0 0.0
2014-Sep-07 03:31N 49°18' W 123°03'0 0.0
2014-Sep-07 02:31N 49°18' W 123°03'0 0.0
2014-Sep-07 01:31N 49°18' W 123°03'0 0.0
2014-Sep-07 00:31N 49°18' W 123°03'0 0.0
2014-Sep-06 23:31N 49°18' W 123°03'0 0.0
2014-Sep-06 22:31N 49°18' W 123°03'0 0.0
2014-Sep-06 21:31N 49°18' W 123°03'0 0.0
2014-Sep-06 20:31N 49°18' W 123°03'0 0.0
2014-Sep-06 19:31N 49°18' W 123°03'0 0.0
2014-Sep-06 18:31N 49°18' W 123°03'0 0.0
2014-Sep-06 17:31N 49°18' W 123°03'0 0.0
2014-Sep-06 16:31N 49°18' W 123°03'0 0.0
2014-Sep-06 15:31N 49°18' W 123°03'0 0.0
2014-Sep-06 14:31N 49°18' W 123°03'0 0.0
2014-Sep-06 13:31N 49°18' W 123°03'0 0.0
2014-Sep-06 12:31N 49°18' W 123°03'0 0.0
2014-Sep-06 11:32N 49°18' W 123°03'0 0.0
2014-Sep-06 10:31N 49°18' W 123°03'0 0.0
2014-Sep-06 09:31N 49°18' W 123°03'0 0.0
2014-Sep-06 08:31N 49°18' W 123°03'0 0.0
2014-Sep-06 07:31N 49°18' W 123°03'0 0.0
2014-Sep-06 06:31N 49°18' W 123°03'0 0.0
2014-Sep-06 05:31N 49°18' W 123°03'0 0.0
2014-Sep-06 04:31N 49°18' W 123°03'0 0.0
2014-Sep-06 03:31N 49°18' W 123°03'0 0.0
2014-Sep-06 02:31N 49°18' W 123°03'0 0.0
2014-Sep-06 01:28N 49°18' W 123°03'0 0.0
2014-Sep-06 00:31N 49°18' W 123°03'0 0.0
2014-Sep-05 23:31N 49°18' W 123°03'0 0.0
2014-Sep-05 22:31N 49°18' W 123°03'0 0.0
2014-Sep-05 21:31N 49°18' W 123°03'0 0.0
2014-Sep-05 20:31N 49°18' W 123°03'0 0.0
2014-Sep-05 19:31N 49°18' W 123°03'0 0.0
2014-Sep-05 18:31N 49°18' W 123°03'0 0.0
2014-Sep-05 17:31N 49°18' W 123°03'0 0.0
2014-Sep-05 16:31N 49°18' W 123°03'0 0.0
2014-Sep-05 15:31N 49°18' W 123°03'0 0.0
2014-Sep-05 14:31N 49°18' W 123°03'0 0.0
2014-Sep-05 13:31N 49°18' W 123°03'0 0.0
2014-Sep-05 12:31N 49°18' W 123°03'0 0.0
2014-Sep-05 11:31N 49°18' W 123°03'0 0.0
2014-Sep-05 10:31N 49°18' W 123°03'0 0.0
2014-Sep-05 09:31N 49°18' W 123°03'0 0.0
2014-Sep-05 08:31N 49°18' W 123°03'0 0.0
2014-Sep-05 07:31N 49°18' W 123°03'0 0.0
2014-Sep-05 06:31N 49°18' W 123°03'0 0.0
2014-Sep-05 05:31N 49°18' W 123°03'0 0.0
2014-Sep-05 04:31N 49°18' W 123°03'0 0.0
2014-Sep-05 03:31N 49°18' W 123°03'0 0.0
2014-Sep-05 02:31N 49°18' W 123°03'0 0.0
2014-Sep-05 01:31N 49°18' W 123°03'0 0.0
2014-Sep-05 00:31N 49°18' W 123°03'0 0.0
2014-Sep-04 23:31N 49°18' W 123°03'0 0.0
2014-Sep-04 22:31N 49°18' W 123°03'0 0.0
2014-Sep-04 21:31N 49°18' W 123°03'0 0.0
2014-Sep-04 20:33N 49°18' W 123°03'0 0.0
2014-Sep-04 19:33N 49°18' W 123°03'0 0.0
2014-Sep-04 18:33N 49°18' W 123°03'0 0.0
2014-Sep-04 17:30N 49°18' W 123°03'0 0.0
2014-Sep-04 16:33N 49°18' W 123°03'0 0.0
2014-Sep-04 15:33N 49°18' W 123°03'0 0.0
2014-Sep-04 14:33N 49°18' W 123°03'0 0.0
2014-Sep-04 13:33N 49°18' W 123°03'0 0.0
2014-Sep-04 12:33N 49°18' W 123°03'0 0.0
2014-Sep-04 11:33N 49°18' W 123°03'0 0.0
2014-Sep-04 10:33N 49°18' W 123°03'0 0.0
2014-Sep-04 09:33N 49°18' W 123°03'0 0.0
2014-Sep-04 08:33N 49°18' W 123°03'0 0.0
2014-Sep-04 07:33N 49°18' W 123°03'0 0.0
2014-Sep-04 06:33N 49°18' W 123°03'0 0.0
2014-Sep-04 05:33N 49°18' W 123°03'0 0.0
2014-Sep-04 04:33N 49°18' W 123°03'0 0.0
2014-Sep-04 03:33N 49°18' W 123°03'0 0.0
2014-Sep-04 02:33N 49°18' W 123°03'0 0.0
2014-Sep-04 01:33N 49°18' W 123°03'0 0.0
2014-Sep-04 00:30N 49°18' W 123°03'0 0.0
2014-Sep-03 23:33N 49°18' W 123°03'0 0.0
2014-Sep-03 22:33N 49°18' W 123°03'0 0.0
2014-Sep-03 21:30N 49°18' W 123°03'0 0.0
2014-Sep-03 20:33N 49°18' W 123°03'0 0.0
2014-Sep-03 19:33N 49°18' W 123°03'0 0.0
2014-Sep-03 18:33N 49°18' W 123°03'0 0.0
2014-Sep-03 17:33N 49°18' W 123°03'0 0.0
2014-Sep-03 16:33N 49°18' W 123°03'0 0.0
2014-Sep-03 15:33N 49°18' W 123°03'0 0.0
2014-Sep-03 14:33N 49°18' W 123°03'0 0.0
2014-Sep-03 13:33N 49°18' W 123°03'0 0.0
2014-Sep-03 12:33N 49°18' W 123°03'0 0.0
2014-Sep-03 11:33N 49°18' W 123°03'0 0.0
2014-Sep-03 10:33N 49°18' W 123°03'0 0.0
2014-Sep-03 09:33N 49°18' W 123°03'0 0.0
2014-Sep-03 08:33N 49°18' W 123°03'0 0.0
2014-Sep-03 07:33N 49°18' W 123°03'0 0.0
2014-Sep-03 06:33N 49°18' W 123°03'0 0.0
2014-Sep-03 05:33N 49°18' W 123°03'0 0.0
2014-Sep-03 04:33N 49°18' W 123°03'0 0.0
2014-Sep-03 03:33N 49°18' W 123°03'0 0.0
2014-Sep-03 02:33N 49°18' W 123°03'0 0.0
2014-Sep-03 01:33N 49°18' W 123°03'0 0.0
2014-Sep-03 00:33N 49°18' W 123°03'0 0.0
2014-Sep-02 23:33N 49°18' W 123°03'0 0.0
2014-Sep-02 22:33N 49°18' W 123°03'0 0.0
2014-Sep-02 21:33N 49°18' W 123°03'0 0.0
2014-Sep-02 20:33N 49°18' W 123°03'0 0.0
2014-Sep-02 19:33N 49°18' W 123°03'0 0.0
2014-Sep-02 18:33N 49°18' W 123°03'0 0.0
2014-Sep-02 17:30N 49°18' W 123°03'0 0.0
2014-Sep-02 16:33N 49°18' W 123°03'0 0.0
2014-Sep-02 15:33N 49°18' W 123°03'0 0.0
2014-Sep-02 14:33N 49°18' W 123°03'0 0.0
2014-Sep-02 13:33N 49°18' W 123°03'0 0.0
2014-Sep-02 12:33N 49°18' W 123°03'0 0.0
2014-Sep-02 11:33N 49°18' W 123°03'0 0.0
2014-Sep-02 10:33N 49°18' W 123°03'0 0.0
2014-Sep-02 09:33N 49°18' W 123°03'0 0.0
2014-Sep-02 08:33N 49°18' W 123°03'0 0.0
2014-Sep-02 07:33N 49°18' W 123°03'0 0.0
2014-Sep-02 06:33N 49°18' W 123°03'0 0.0
2014-Sep-02 05:33N 49°18' W 123°03'0 0.0
2014-Sep-02 04:33N 49°18' W 123°03'0 0.0
2014-Sep-02 03:33N 49°18' W 123°03'0 0.0
2014-Sep-02 02:33N 49°18' W 123°03'0 0.0
2014-Sep-02 01:33N 49°18' W 123°03'0 0.0
2014-Sep-02 00:33N 49°18' W 123°03'0 0.0
2014-Sep-01 23:33N 49°18' W 123°03'0 0.0
2014-Sep-01 22:33N 49°18' W 123°03'0 0.0
2014-Sep-01 21:33N 49°18' W 123°03'0 0.0
2014-Sep-01 20:33N 49°18' W 123°03'6 5.6
2014-Sep-01 19:33N 49°19' W 123°12'1211.9
2014-Sep-01 18:33N 49°09' W 123°21'1414.0
2014-Sep-01 17:33N 48°57' W 123°10'1312.5
2014-Sep-01 16:33N 48°45' W 123°03'1212.1
2014-Sep-01 15:33N 48°35' W 123°13'1313.2
2014-Sep-01 14:34N 48°22' W 123°18'9 8.7
2014-Sep-01 13:33N 48°16' W 123°27'1111.5
2014-Sep-01 12:33N 48°14' W 123°44'1313.4
2014-Sep-01 11:33N 48°16' W 124°04'1413.8
2014-Sep-01 10:33N 48°22' W 124°22'1312.9
2014-Sep-01 09:33N 48°27' W 124°40'1313.1
2014-Sep-01 08:33N 48°28' W 124°60'1414.5
2014-Sep-01 07:33N 48°16' W 125°12'1413.8
2014-Sep-01 06:31N 48°02' W 125°18'53013.9
2014-Aug-30 16:31N 39°13' W 125°20'2613.0
2014-Aug-30 14:33N 38°48' W 125°12'1413.3
2014-Aug-30 13:31N 38°36' W 125°03'1313.5
2014-Aug-30 12:33N 38°24' W 124°56'1313.3
2014-Aug-30 11:33N 38°13' W 124°47'1313.3
2014-Aug-30 10:33N 38°01' W 124°39'1312.7
2014-Aug-30 09:33N 37°50' W 124°32'1212.3
2014-Aug-30 08:33N 37°39' W 124°24'1212.1
2014-Aug-30 07:33N 37°28' W 124°17'1312.7
2014-Aug-30 06:33N 37°17' W 124°10'1312.7
2014-Aug-30 05:33N 37°06' W 124°02'1312.8
2014-Aug-30 04:33N 36°54' W 123°55'1312.7
2014-Aug-30 03:33N 36°43' W 123°47'  
Track history (hours):
 
Tides and Currents Weather Stations Pressure Air Temp Water Temp Dewpoint Dewpoint Depression Visibility Wind Speed Wind Dir Waves Ship Positions

Albert Oldendorff

Last reported at 2014-Sep-09 03:14 UTC. Time now 2014-Sep-30 16:04 UTC.
Position N 48°29' W 126°11'.
Warning: this ship's position is 21 days out of date.

Length 171 m; draft 10.5 m.

Type: Cargo ship. MMSI: 255805260.

Date/timePositionNaut miles runAvg speedWind from/ knotsBaromVisibWave heightAir tempDewpointWater temp
2014-Sep-09 03:14N 48°29' W 126°11'812.3
2014-Sep-09 02:33N 48°29' W 125°58'1312.9
2014-Sep-09 01:33N 48°30' W 125°39'1413.0
2014-Sep-09 00:31N 48°30' W 125°19'1213.1
2014-Sep-08 23:33N 48°31' W 124°60'1312.8
2014-Sep-08 22:33N 48°29' W 124°40'1312.6
2014-Sep-08 21:33N 48°25' W 124°23'1211.9
2014-Sep-08 20:33N 48°20' W 124°06'1212.1
2014-Sep-08 19:33N 48°17' W 123°49'1212.3
2014-Sep-08 18:33N 48°16' W 123°30'10 9.7
2014-Sep-08 17:33N 48°23' W 123°20'10 9.8
2014-Sep-08 16:34N 48°32' W 123°13'1313.1
2014-Sep-08 15:33N 48°44' W 123°08'10 9.9
2014-Sep-08 14:33N 48°54' W 123°09'1414.0
2014-Sep-08 13:33N 49°04' W 123°24'1313.5
2014-Sep-08 12:34N 49°18' W 123°19'9 9.0
2014-Sep-08 11:34N 49°18' W 123°05'1 1.3
2014-Sep-08 10:34N 49°18' W 123°03'0 0.0
2014-Sep-08 09:31N 49°18' W 123°03'0 0.0
2014-Sep-08 08:31N 49°18' W 123°03'0 0.0
2014-Sep-08 07:31N 49°18' W 123°03'0 0.0
2014-Sep-08 06:31N 49°18' W 123°03'0 0.0
2014-Sep-08 05:31N 49°18' W 123°03'0 0.0
2014-Sep-08 04:31N 49°18' W 123°03'0 0.0
2014-Sep-08 03:31N 49°18' W 123°03'0 0.0
2014-Sep-08 02:31N 49°18' W 123°03'0 0.0
2014-Sep-08 01:31N 49°18' W 123°03'0 0.0
2014-Sep-08 00:31N 49°18' W 123°03'0 0.0
2014-Sep-07 23:31N 49°18' W 123°03'0 0.0
2014-Sep-07 22:31N 49°18' W 123°03'0 0.0
2014-Sep-07 21:31N 49°18' W 123°03'0 0.0
2014-Sep-07 20:31N 49°18' W 123°03'0 0.0
2014-Sep-07 19:31N 49°18' W 123°03'0 0.0
2014-Sep-07 18:31N 49°18' W 123°03'0 0.0
2014-Sep-07 17:31N 49°18' W 123°03'0 0.0
2014-Sep-07 16:31N 49°18' W 123°03'0 0.0
2014-Sep-07 15:31N 49°18' W 123°03'0 0.0
2014-Sep-07 14:31N 49°18' W 123°03'0 0.0
2014-Sep-07 13:31N 49°18' W 123°03'0 0.0
2014-Sep-07 12:31N 49°18' W 123°03'0 0.0
2014-Sep-07 11:31N 49°18' W 123°03'0 0.0
2014-Sep-07 10:31N 49°18' W 123°03'0 0.0
2014-Sep-07 09:31N 49°18' W 123°03'0 0.0
2014-Sep-07 08:31N 49°18' W 123°03'0 0.0
2014-Sep-07 07:31N 49°18' W 123°03'0 0.0
2014-Sep-07 06:31N 49°18' W 123°03'0 0.0
2014-Sep-07 05:31N 49°18' W 123°03'0 0.0
2014-Sep-07 04:28N 49°18' W 123°03'0 0.0
2014-Sep-07 03:31N 49°18' W 123°03'0 0.0
2014-Sep-07 02:31N 49°18' W 123°03'0 0.0
2014-Sep-07 01:31N 49°18' W 123°03'0 0.0
2014-Sep-07 00:31N 49°18' W 123°03'0 0.0
2014-Sep-06 23:31N 49°18' W 123°03'0 0.0
2014-Sep-06 22:31N 49°18' W 123°03'0 0.0
2014-Sep-06 21:31N 49°18' W 123°03'0 0.0
2014-Sep-06 20:31N 49°18' W 123°03'0 0.0
2014-Sep-06 19:31N 49°18' W 123°03'0 0.0
2014-Sep-06 18:31N 49°18' W 123°03'0 0.0
2014-Sep-06 17:31N 49°18' W 123°03'0 0.0
2014-Sep-06 16:31N 49°18' W 123°03'0 0.0
2014-Sep-06 15:31N 49°18' W 123°03'0 0.0
2014-Sep-06 14:31N 49°18' W 123°03'0 0.0
2014-Sep-06 13:31N 49°18' W 123°03'0 0.0
2014-Sep-06 12:31N 49°18' W 123°03'0 0.0
2014-Sep-06 11:32N 49°18' W 123°03'0 0.0
2014-Sep-06 10:31N 49°18' W 123°03'0 0.0
2014-Sep-06 09:31N 49°18' W 123°03'0 0.0
2014-Sep-06 08:31N 49°18' W 123°03'0 0.0
2014-Sep-06 07:31N 49°18' W 123°03'0 0.0
2014-Sep-06 06:31N 49°18' W 123°03'0 0.0
2014-Sep-06 05:31N 49°18' W 123°03'0 0.0
2014-Sep-06 04:31N 49°18' W 123°03'0 0.0
2014-Sep-06 03:31N 49°18' W 123°03'0 0.0
2014-Sep-06 02:31N 49°18' W 123°03'0 0.0
2014-Sep-06 01:28N 49°18' W 123°03'0 0.0
2014-Sep-06 00:31N 49°18' W 123°03'0 0.0
2014-Sep-05 23:31N 49°18' W 123°03'0 0.0
2014-Sep-05 22:31N 49°18' W 123°03'0 0.0
2014-Sep-05 21:31N 49°18' W 123°03'0 0.0
2014-Sep-05 20:31N 49°18' W 123°03'0 0.0
2014-Sep-05 19:31N 49°18' W 123°03'0 0.0
2014-Sep-05 18:31N 49°18' W 123°03'0 0.0
2014-Sep-05 17:31N 49°18' W 123°03'0 0.0
2014-Sep-05 16:31N 49°18' W 123°03'0 0.0
2014-Sep-05 15:31N 49°18' W 123°03'0 0.0
2014-Sep-05 14:31N 49°18' W 123°03'0 0.0
2014-Sep-05 13:31N 49°18' W 123°03'0 0.0
2014-Sep-05 12:31N 49°18' W 123°03'0 0.0
2014-Sep-05 11:31N 49°18' W 123°03'0 0.0
2014-Sep-05 10:31N 49°18' W 123°03'0 0.0
2014-Sep-05 09:31N 49°18' W 123°03'0 0.0
2014-Sep-05 08:31N 49°18' W 123°03'0 0.0
2014-Sep-05 07:31N 49°18' W 123°03'0 0.0
2014-Sep-05 06:31N 49°18' W 123°03'0 0.0
2014-Sep-05 05:31N 49°18' W 123°03'0 0.0
2014-Sep-05 04:31N 49°18' W 123°03'0 0.0
2014-Sep-05 03:31N 49°18' W 123°03'0 0.0
2014-Sep-05 02:31N 49°18' W 123°03'0 0.0
2014-Sep-05 01:31N 49°18' W 123°03'0 0.0
2014-Sep-05 00:31N 49°18' W 123°03'0 0.0
2014-Sep-04 23:31N 49°18' W 123°03'0 0.0
2014-Sep-04 22:31N 49°18' W 123°03'0 0.0
2014-Sep-04 21:31N 49°18' W 123°03'0 0.0
2014-Sep-04 20:33N 49°18' W 123°03'0 0.0
2014-Sep-04 19:33N 49°18' W 123°03'0 0.0
2014-Sep-04 18:33N 49°18' W 123°03'0 0.0
2014-Sep-04 17:30N 49°18' W 123°03'0 0.0
2014-Sep-04 16:33N 49°18' W 123°03'0 0.0
2014-Sep-04 15:33N 49°18' W 123°03'0 0.0
2014-Sep-04 14:33N 49°18' W 123°03'0 0.0
2014-Sep-04 13:33N 49°18' W 123°03'0 0.0
2014-Sep-04 12:33N 49°18' W 123°03'0 0.0
2014-Sep-04 11:33N 49°18' W 123°03'0 0.0
2014-Sep-04 10:33N 49°18' W 123°03'0 0.0
2014-Sep-04 09:33N 49°18' W 123°03'0 0.0
2014-Sep-04 08:33N 49°18' W 123°03'0 0.0
2014-Sep-04 07:33N 49°18' W 123°03'0 0.0
2014-Sep-04 06:33N 49°18' W 123°03'0 0.0
2014-Sep-04 05:33N 49°18' W 123°03'0 0.0
2014-Sep-04 04:33N 49°18' W 123°03'0 0.0
2014-Sep-04 03:33N 49°18' W 123°03'0 0.0
2014-Sep-04 02:33N 49°18' W 123°03'0 0.0
2014-Sep-04 01:33N 49°18' W 123°03'0 0.0
2014-Sep-04 00:30N 49°18' W 123°03'0 0.0
2014-Sep-03 23:33N 49°18' W 123°03'0 0.0
2014-Sep-03 22:33N 49°18' W 123°03'0 0.0
2014-Sep-03 21:30N 49°18' W 123°03'0 0.0
2014-Sep-03 20:33N 49°18' W 123°03'0 0.0
2014-Sep-03 19:33N 49°18' W 123°03'0 0.0
2014-Sep-03 18:33N 49°18' W 123°03'0 0.0
2014-Sep-03 17:33N 49°18' W 123°03'0 0.0
2014-Sep-03 16:33N 49°18' W 123°03'0 0.0
2014-Sep-03 15:33N 49°18' W 123°03'0 0.0
2014-Sep-03 14:33N 49°18' W 123°03'0 0.0
2014-Sep-03 13:33N 49°18' W 123°03'0 0.0
2014-Sep-03 12:33N 49°18' W 123°03'0 0.0
2014-Sep-03 11:33N 49°18' W 123°03'0 0.0
2014-Sep-03 10:33N 49°18' W 123°03'0 0.0
2014-Sep-03 09:33N 49°18' W 123°03'0 0.0
2014-Sep-03 08:33N 49°18' W 123°03'0 0.0
2014-Sep-03 07:33N 49°18' W 123°03'0 0.0
2014-Sep-03 06:33N 49°18' W 123°03'0 0.0
2014-Sep-03 05:33N 49°18' W 123°03'0 0.0
2014-Sep-03 04:33N 49°18' W 123°03'0 0.0
2014-Sep-03 03:33N 49°18' W 123°03'0 0.0
2014-Sep-03 02:33N 49°18' W 123°03'0 0.0
2014-Sep-03 01:33N 49°18' W 123°03'0 0.0
2014-Sep-03 00:33N 49°18' W 123°03'0 0.0
2014-Sep-02 23:33N 49°18' W 123°03'0 0.0
2014-Sep-02 22:33N 49°18' W 123°03'0 0.0
2014-Sep-02 21:33N 49°18' W 123°03'0 0.0
2014-Sep-02 20:33N 49°18' W 123°03'0 0.0
2014-Sep-02 19:33N 49°18' W 123°03'0 0.0
2014-Sep-02 18:33N 49°18' W 123°03'0 0.0
2014-Sep-02 17:30N 49°18' W 123°03'0 0.0
2014-Sep-02 16:33N 49°18' W 123°03'0 0.0
2014-Sep-02 15:33N 49°18' W 123°03'0 0.0
2014-Sep-02 14:33N 49°18' W 123°03'0 0.0
2014-Sep-02 13:33N 49°18' W 123°03'0 0.0
2014-Sep-02 12:33N 49°18' W 123°03'0 0.0
2014-Sep-02 11:33N 49°18' W 123°03'0 0.0
2014-Sep-02 10:33N 49°18' W 123°03'0 0.0
2014-Sep-02 09:33N 49°18' W 123°03'0 0.0
2014-Sep-02 08:33N 49°18' W 123°03'0 0.0
2014-Sep-02 07:33N 49°18' W 123°03'0 0.0
2014-Sep-02 06:33N 49°18' W 123°03'0 0.0
2014-Sep-02 05:33N 49°18' W 123°03'0 0.0
2014-Sep-02 04:33N 49°18' W 123°03'0 0.0
2014-Sep-02 03:33N 49°18' W 123°03'0 0.0
2014-Sep-02 02:33N 49°18' W 123°03'0 0.0
2014-Sep-02 01:33N 49°18' W 123°03'0 0.0
2014-Sep-02 00:33N 49°18' W 123°03'0 0.0
2014-Sep-01 23:33N 49°18' W 123°03'0 0.0
2014-Sep-01 22:33N 49°18' W 123°03'0 0.0
2014-Sep-01 21:33N 49°18' W 123°03'0 0.0
2014-Sep-01 20:33N 49°18' W 123°03'6 5.6
2014-Sep-01 19:33N 49°19' W 123°12'1211.9
2014-Sep-01 18:33N 49°09' W 123°21'1414.0
2014-Sep-01 17:33N 48°57' W 123°10'1312.5
2014-Sep-01 16:33N 48°45' W 123°03'1212.1
2014-Sep-01 15:33N 48°35' W 123°13'1313.2
2014-Sep-01 14:34N 48°22' W 123°18'9 8.7
2014-Sep-01 13:33N 48°16' W 123°27'1111.5
2014-Sep-01 12:33N 48°14' W 123°44'1313.4
2014-Sep-01 11:33N 48°16' W 124°04'1413.8
2014-Sep-01 10:33N 48°22' W 124°22'1312.9
2014-Sep-01 09:33N 48°27' W 124°40'1313.1
2014-Sep-01 08:33N 48°28' W 124°60'1414.5
2014-Sep-01 07:33N 48°16' W 125°12'1413.8
2014-Sep-01 06:31N 48°02' W 125°18'53013.9
2014-Aug-30 16:31N 39°13' W 125°20'2613.0
2014-Aug-30 14:33N 38°48' W 125°12'1413.3
2014-Aug-30 13:31N 38°36' W 125°03'1313.5
2014-Aug-30 12:33N 38°24' W 124°56'1313.3
2014-Aug-30 11:33N 38°13' W 124°47'1313.3
2014-Aug-30 10:33N 38°01' W 124°39'1312.7
2014-Aug-30 09:33N 37°50' W 124°32'1212.3
2014-Aug-30 08:33N 37°39' W 124°24'1212.1
2014-Aug-30 07:33N 37°28' W 124°17'1312.7
2014-Aug-30 06:33N 37°17' W 124°10'1312.7
2014-Aug-30 05:33N 37°06' W 124°02'1312.8
2014-Aug-30 04:33N 36°54' W 123°55'1312.7
2014-Aug-30 03:33N 36°43' W 123°47'  

Dump ship's entire track history